createdAt,value
2018-07-05T00:01:14.635Z,22.72
2018-07-05T00:04:29.364Z,22.87
2018-07-05T00:07:44.175Z,22.78
2018-07-05T00:10:58.711Z,22.60
2018-07-05T00:14:13.696Z,22.54
2018-07-05T00:17:28.242Z,22.62
2018-07-05T00:20:42.820Z,22.59
2018-07-05T00:23:57.378Z,22.80
2018-07-05T00:27:12.039Z,22.74
2018-07-05T00:30:26.605Z,22.70
2018-07-05T00:33:41.334Z,22.33
2018-07-05T00:36:56.050Z,22.43
2018-07-05T00:40:10.631Z,22.54
2018-07-05T00:43:25.119Z,22.29
2018-07-05T00:46:39.683Z,21.99
2018-07-05T00:49:54.358Z,22.15
2018-07-05T00:53:09.038Z,22.16
2018-07-05T00:56:23.589Z,22.03
2018-07-05T00:59:38.022Z,22.13
2018-07-05T01:02:52.850Z,22.19
2018-07-05T01:06:07.603Z,22.24
2018-07-05T01:09:22.039Z,22.16
2018-07-05T01:12:36.643Z,22.14
2018-07-05T01:15:51.104Z,22.07
2018-07-05T01:19:05.669Z,22.02
2018-07-05T01:22:20.258Z,22.01
2018-07-05T01:25:35.029Z,21.70
2018-07-05T01:28:49.589Z,21.85
2018-07-05T01:32:04.322Z,21.95
2018-07-05T01:35:18.885Z,21.76
2018-07-05T01:38:33.365Z,21.54
2018-07-05T01:41:47.971Z,21.84
2018-07-05T01:45:02.541Z,21.76
2018-07-05T01:48:17.059Z,21.62
2018-07-05T01:51:31.652Z,21.58
2018-07-05T01:54:46.344Z,21.30
2018-07-05T01:58:00.872Z,21.51
2018-07-05T02:01:15.414Z,21.71
2018-07-05T02:04:30.137Z,21.57
2018-07-05T02:07:44.730Z,21.40
2018-07-05T02:10:59.254Z,21.59
2018-07-05T02:14:13.741Z,21.53
2018-07-05T02:17:28.307Z,21.47
2018-07-05T02:20:42.845Z,21.45
2018-07-05T02:23:57.431Z,21.16
2018-07-05T02:27:12.048Z,21.36
2018-07-05T02:30:26.585Z,21.32
2018-07-05T02:33:41.078Z,21.34
2018-07-05T02:36:55.573Z,21.38
2018-07-05T02:40:10.230Z,21.34
2018-07-05T02:43:24.804Z,21.41
2018-07-05T02:46:39.199Z,21.40
2018-07-05T02:49:53.678Z,21.34
2018-07-05T02:53:08.342Z,21.31
2018-07-05T02:56:22.834Z,21.28
2018-07-05T02:59:37.911Z,21.30
2018-07-05T03:02:52.537Z,21.11
2018-07-05T03:06:07.253Z,20.94
2018-07-05T03:09:21.879Z,20.92
2018-07-05T03:12:36.420Z,20.86
2018-07-05T03:15:51.118Z,20.85
2018-07-05T03:19:05.942Z,20.94
2018-07-05T03:22:20.561Z,20.89
2018-07-05T03:25:35.069Z,20.96
2018-07-05T03:31:57.438Z,21.10
2018-07-05T03:35:11.990Z,21.18
2018-07-05T03:38:26.555Z,21.09
2018-07-05T03:41:41.131Z,21.02
2018-07-05T03:44:55.659Z,20.97
2018-07-05T03:48:10.217Z,20.87
2018-07-05T03:51:24.744Z,20.88
2018-07-05T03:54:39.283Z,21.00
2018-07-05T03:57:53.864Z,20.98
2018-07-05T04:01:08.344Z,20.97
2018-07-05T04:04:22.783Z,20.97
2018-07-05T04:07:37.413Z,20.92
2018-07-05T04:10:51.906Z,20.80
2018-07-05T04:14:06.340Z,20.88
2018-07-05T04:17:20.893Z,20.87
2018-07-05T04:20:35.611Z,20.93
2018-07-05T04:23:50.312Z,20.99
2018-07-05T04:27:04.968Z,21.07
2018-07-05T04:30:19.651Z,21.22
2018-07-05T04:33:34.202Z,21.29
2018-07-05T04:36:48.767Z,21.21
2018-07-05T04:40:03.361Z,21.41
2018-07-05T04:43:17.981Z,21.44
2018-07-05T04:46:32.718Z,21.55
2018-07-05T04:49:47.273Z,21.58
2018-07-05T04:53:01.820Z,21.63
2018-07-05T04:56:16.402Z,21.66
2018-07-05T04:59:31.023Z,21.84
2018-07-05T05:02:45.754Z,21.93
2018-07-05T05:06:00.426Z,21.85
2018-07-05T05:09:15.104Z,21.79
2018-07-05T05:12:29.857Z,21.93
2018-07-05T05:15:44.434Z,21.96
2018-07-05T05:18:59.055Z,21.96
2018-07-05T05:22:13.464Z,21.60
2018-07-05T05:25:27.949Z,21.78
2018-07-05T05:28:42.553Z,21.87
2018-07-05T05:31:57.258Z,22.08
2018-07-05T05:35:11.824Z,22.14
2018-07-05T05:38:26.371Z,22.14
2018-07-05T05:41:40.994Z,22.22
2018-07-05T05:44:56.087Z,22.19
2018-07-05T05:48:10.583Z,22.20
2018-07-05T05:51:25.275Z,22.30
2018-07-05T05:54:39.922Z,22.32
2018-07-05T05:57:54.681Z,22.33
2018-07-05T06:01:09.234Z,22.34
2018-07-05T06:04:23.956Z,22.35
2018-07-05T06:07:38.377Z,22.43
2018-07-05T06:10:52.914Z,22.47
2018-07-05T06:14:07.475Z,22.64
2018-07-05T06:17:21.944Z,22.61
2018-07-05T06:20:36.555Z,22.76
2018-07-05T06:23:51.093Z,22.83
2018-07-05T06:27:05.746Z,22.90
2018-07-05T06:30:20.422Z,23.00
2018-07-05T06:33:35.035Z,23.04
2018-07-05T06:36:49.667Z,23.17
2018-07-05T06:40:04.294Z,23.27
2018-07-05T06:43:18.966Z,23.37
2018-07-05T06:46:33.513Z,23.48
2018-07-05T06:49:48.107Z,23.55
2018-07-05T06:53:02.803Z,23.63
2018-07-05T06:56:17.341Z,23.69
2018-07-05T06:59:31.948Z,23.85
2018-07-05T07:02:46.455Z,24.01
2018-07-05T07:06:01.012Z,24.29
2018-07-05T07:09:15.562Z,24.57
2018-07-05T07:12:30.325Z,24.67
2018-07-05T07:15:45.124Z,24.74
2018-07-05T07:18:59.707Z,24.89
2018-07-05T07:22:14.273Z,25.14
2018-07-05T07:25:28.863Z,25.26
2018-07-05T07:28:43.499Z,25.37
2018-07-05T07:31:58.246Z,25.48
2018-07-05T07:35:12.879Z,25.54
2018-07-05T07:38:27.389Z,25.56
2018-07-05T07:41:41.944Z,25.60
2018-07-05T07:44:44.204Z,25.72
2018-07-05T07:47:46.396Z,25.78
2018-07-05T07:50:48.573Z,26.01
2018-07-05T07:53:50.783Z,26.06
2018-07-05T07:56:53.135Z,26.16
2018-07-05T07:59:55.333Z,26.30
2018-07-05T08:02:57.693Z,26.43
2018-07-05T08:06:00.046Z,26.53
2018-07-05T08:09:02.280Z,26.60
2018-07-05T08:12:04.465Z,26.75
2018-07-05T08:15:06.852Z,26.88
2018-07-05T08:18:09.087Z,26.92
2018-07-05T08:21:12.129Z,26.91
2018-07-05T08:24:14.404Z,26.87
2018-07-05T08:27:17.051Z,27.01
2018-07-05T08:30:19.304Z,26.92
2018-07-05T08:33:21.601Z,27.15
2018-07-05T08:36:23.870Z,27.18
2018-07-05T08:39:26.020Z,27.20
2018-07-05T08:42:28.270Z,27.40
2018-07-05T08:45:40.001Z,27.50
2018-07-05T08:48:42.411Z,27.48
2018-07-05T08:51:44.614Z,27.45
2018-07-05T08:54:46.813Z,27.58
2018-07-05T08:57:48.966Z,27.60
2018-07-05T09:00:51.152Z,27.58
2018-07-05T09:03:53.366Z,27.65
2018-07-05T09:06:55.533Z,27.88
2018-07-05T09:09:57.709Z,27.77
2018-07-05T09:12:59.893Z,27.89
2018-07-05T09:16:02.091Z,28.07
2018-07-05T09:19:04.266Z,28.29
2018-07-05T09:22:06.565Z,28.48
2018-07-05T09:25:08.718Z,28.67
2018-07-05T09:28:11.059Z,28.86
2018-07-05T09:31:13.294Z,29.03
2018-07-05T09:34:15.464Z,29.16
2018-07-05T09:37:17.675Z,29.21
2018-07-05T09:40:19.894Z,29.27
2018-07-05T09:43:22.090Z,29.57
2018-07-05T09:46:24.406Z,29.73
2018-07-05T09:49:26.650Z,29.92
2018-07-05T09:52:28.966Z,29.99
2018-07-05T09:55:31.183Z,30.11
2018-07-05T09:58:33.691Z,30.16
2018-07-05T10:01:35.923Z,30.05
2018-07-05T10:04:38.194Z,30.15
2018-07-05T10:07:40.607Z,30.00
2018-07-05T10:10:42.859Z,29.65
2018-07-05T10:13:45.362Z,30.10
2018-07-05T10:16:47.549Z,30.10
2018-07-05T10:19:50.035Z,30.20
2018-07-05T10:22:52.227Z,30.20
2018-07-05T10:25:54.415Z,30.34
2018-07-05T10:29:09.086Z,30.12
2018-07-05T10:32:23.791Z,30.33
2018-07-05T10:35:25.992Z,30.58
2018-07-05T10:38:28.206Z,30.77
2018-07-05T10:41:42.847Z,30.84
2018-07-05T10:44:57.567Z,30.89
2018-07-05T10:48:12.157Z,30.78
2018-07-05T10:51:26.767Z,30.61
2018-07-05T10:54:41.535Z,31.10
2018-07-05T10:57:56.093Z,31.27
2018-07-05T11:01:10.804Z,31.38
2018-07-05T11:04:25.699Z,31.45
2018-07-05T11:07:40.520Z,31.60
2018-07-05T11:10:55.326Z,31.97
2018-07-05T11:14:09.847Z,31.78
2018-07-05T11:17:24.728Z,32.00
2018-07-05T11:20:39.805Z,32.18
2018-07-05T11:23:54.882Z,32.33
2018-07-05T11:27:09.557Z,32.01
2018-07-05T11:30:24.648Z,32.51
2018-07-05T11:33:39.550Z,32.58
2018-07-05T11:36:54.748Z,32.80
2018-07-05T11:40:09.706Z,32.96
2018-07-05T11:43:24.724Z,32.98
2018-07-05T11:46:39.653Z,32.82
2018-07-05T11:49:55.039Z,33.00
2018-07-05T11:53:10.641Z,33.19
2018-07-05T11:56:25.107Z,33.20
2018-07-05T11:59:39.969Z,33.20
2018-07-05T12:02:54.747Z,33.46
2018-07-05T12:06:09.324Z,33.30
2018-07-05T12:09:24.191Z,33.07
2018-07-05T12:12:38.792Z,32.78
2018-07-05T12:15:53.521Z,32.57
2018-07-05T12:19:08.185Z,32.91
2018-07-05T12:22:22.890Z,33.40
2018-07-05T12:25:37.635Z,33.72
2018-07-05T12:28:52.148Z,33.33
2018-07-05T12:32:06.981Z,33.48
2018-07-05T12:35:21.631Z,33.19
2018-07-05T12:38:36.322Z,32.31
2018-07-05T12:41:50.837Z,32.50
2018-07-05T12:45:05.643Z,32.80
2018-07-05T12:48:20.404Z,32.67
2018-07-05T12:51:35.040Z,32.30
2018-07-05T12:54:49.838Z,32.55
2018-07-05T12:58:04.630Z,32.84
2018-07-05T13:01:19.257Z,32.30
2018-07-05T13:04:33.977Z,32.25
2018-07-05T13:07:48.581Z,32.59
2018-07-05T13:11:03.347Z,32.61
2018-07-05T13:14:17.985Z,32.18
2018-07-05T13:17:32.583Z,32.02
2018-07-05T13:20:47.151Z,31.84
2018-07-05T13:24:01.854Z,32.10
2018-07-05T13:27:16.479Z,32.29
2018-07-05T13:30:31.057Z,31.99
2018-07-05T13:33:46.684Z,31.74
2018-07-05T13:37:01.495Z,31.64
2018-07-05T13:40:16.202Z,31.04
2018-07-05T13:43:30.774Z,31.18
2018-07-05T13:46:45.298Z,31.11
2018-07-05T13:50:00.040Z,30.99
2018-07-05T13:53:14.698Z,31.27
2018-07-05T13:56:30.161Z,30.83
2018-07-05T13:59:45.144Z,31.15
2018-07-05T14:02:59.688Z,31.29
2018-07-05T14:06:14.432Z,31.33
2018-07-05T14:09:30.136Z,30.95
2018-07-05T14:12:45.912Z,30.94
2018-07-05T14:16:01.536Z,30.83
2018-07-05T14:19:16.138Z,30.90
2018-07-05T14:22:30.984Z,30.91
2018-07-05T14:25:46.002Z,30.93
2018-07-05T14:29:00.761Z,31.28
2018-07-05T14:32:16.456Z,31.46
2018-07-05T14:35:31.778Z,31.39
2018-07-05T14:38:46.304Z,31.39
2018-07-05T14:42:00.906Z,31.55
2018-07-05T14:45:15.439Z,31.58
2018-07-05T14:48:29.837Z,31.49
2018-07-05T14:51:44.496Z,31.39
2018-07-05T14:54:59.095Z,31.47
2018-07-05T14:58:13.679Z,31.34
2018-07-05T15:01:28.334Z,31.56
2018-07-05T15:04:42.890Z,31.42
2018-07-05T15:07:57.495Z,31.41
2018-07-05T15:11:12.135Z,31.46
2018-07-05T15:14:26.738Z,31.42
2018-07-05T15:17:41.340Z,31.18
2018-07-05T15:20:56.264Z,31.06
2018-07-05T15:24:10.899Z,30.89
2018-07-05T15:27:25.560Z,30.86
2018-07-05T15:30:40.316Z,30.62
2018-07-05T15:33:55.053Z,30.39
2018-07-05T15:37:09.916Z,30.58
2018-07-05T15:40:24.644Z,30.86
2018-07-05T15:43:39.342Z,30.83
2018-07-05T15:46:53.873Z,30.69
2018-07-05T15:50:08.667Z,30.78
2018-07-05T15:53:23.464Z,30.55
2018-07-05T15:56:38.338Z,30.62
2018-07-05T15:59:52.820Z,30.49
2018-07-05T16:03:07.666Z,30.62
2018-07-05T16:06:22.308Z,30.79
2018-07-05T16:09:37.035Z,30.71
2018-07-05T16:12:52.274Z,30.57
2018-07-05T16:16:07.255Z,30.38
2018-07-05T16:19:21.987Z,30.51
2018-07-05T16:22:36.595Z,30.19
2018-07-05T16:25:52.534Z,30.30
2018-07-05T16:29:07.529Z,30.09
2018-07-05T16:32:23.289Z,30.08
2018-07-05T16:35:38.576Z,30.11
2018-07-05T16:38:53.530Z,29.84
2018-07-05T16:42:08.118Z,30.04
2018-07-05T16:45:22.716Z,30.13
2018-07-05T16:48:37.569Z,29.95
2018-07-05T16:51:52.759Z,30.04
2018-07-05T16:55:07.518Z,30.19
2018-07-05T16:58:23.337Z,30.12
2018-07-05T17:01:37.825Z,30.22
2018-07-05T17:04:52.619Z,29.82
2018-07-05T17:08:07.367Z,29.76
2018-07-05T17:11:22.274Z,29.85
2018-07-05T17:14:36.995Z,29.65
2018-07-05T17:17:52.483Z,29.45
2018-07-05T17:21:07.246Z,29.52
2018-07-05T17:24:22.189Z,29.51
2018-07-05T17:27:38.223Z,29.41
2018-07-05T17:30:54.431Z,29.31
2018-07-05T17:34:09.466Z,29.42
2018-07-05T17:37:24.394Z,29.31
2018-07-05T17:40:39.052Z,29.39
2018-07-05T17:43:53.890Z,29.20
2018-07-05T17:47:08.881Z,28.97
2018-07-05T17:50:25.866Z,29.01
2018-07-05T17:53:40.609Z,29.05
2018-07-05T17:56:55.455Z,29.03
2018-07-05T18:00:10.391Z,28.81
2018-07-05T18:03:29.150Z,28.88
2018-07-05T18:06:43.957Z,28.74
2018-07-05T18:09:58.847Z,28.75
2018-07-05T18:13:13.637Z,28.78
2018-07-05T18:16:28.411Z,28.52
2018-07-05T18:19:43.197Z,28.63
2018-07-05T18:22:58.397Z,28.53
2018-07-05T18:26:13.324Z,28.35
2018-07-05T18:29:28.065Z,28.34
2018-07-05T18:32:42.964Z,28.32
2018-07-05T18:35:57.812Z,28.27
2018-07-05T18:39:12.561Z,28.21
2018-07-05T18:42:27.542Z,28.18
2018-07-05T18:45:42.346Z,27.86
2018-07-05T18:48:57.450Z,27.91
2018-07-05T18:52:12.378Z,27.86
2018-07-05T18:55:27.081Z,27.88
2018-07-05T18:58:42.255Z,27.60
2018-07-05T19:01:57.252Z,27.51
2018-07-05T19:05:12.200Z,27.32
2018-07-05T19:08:27.253Z,27.19
2018-07-05T19:11:42.192Z,27.19
2018-07-05T19:14:58.036Z,27.17
2018-07-05T19:18:13.000Z,26.81
2018-07-05T19:21:27.724Z,26.90
2018-07-05T19:24:43.482Z,26.76
2018-07-05T19:27:58.151Z,26.71
2018-07-05T19:31:13.073Z,26.65
2018-07-05T19:34:27.853Z,26.57
2018-07-05T19:37:43.030Z,26.50
2018-07-05T19:40:58.102Z,26.55
2018-07-05T19:44:13.126Z,26.53
2018-07-05T19:47:28.207Z,26.38
2018-07-05T19:50:43.202Z,26.18
2018-07-05T19:53:58.177Z,25.77
2018-07-05T19:57:13.252Z,25.97
2018-07-05T20:00:28.165Z,25.98
2018-07-05T20:03:42.917Z,25.96
2018-07-05T20:06:57.882Z,25.93
2018-07-05T20:10:13.109Z,25.79
2018-07-05T20:13:28.135Z,25.81
2018-07-05T20:16:43.467Z,25.79
2018-07-05T20:19:59.148Z,25.64
2018-07-05T20:23:14.744Z,25.30
2018-07-05T20:26:29.320Z,25.20
2018-07-05T20:29:44.103Z,25.31
2018-07-05T20:32:59.026Z,25.34
2018-07-05T20:36:13.869Z,25.22
2018-07-05T20:39:28.699Z,25.30
2018-07-05T20:42:43.496Z,25.09
2018-07-05T20:45:58.218Z,24.95
2018-07-05T20:49:12.926Z,24.94
2018-07-05T20:52:27.721Z,24.91
2018-07-05T20:55:42.701Z,24.80
2018-07-05T20:58:57.535Z,24.67
2018-07-05T21:02:12.654Z,24.78
2018-07-05T21:05:27.520Z,24.75
2018-07-05T21:08:42.361Z,24.63
2018-07-05T21:11:57.239Z,24.44
2018-07-05T21:15:12.113Z,24.41
2018-07-05T21:18:26.791Z,24.39
2018-07-05T21:21:41.544Z,24.24
2018-07-05T21:24:56.215Z,24.00
2018-07-05T21:28:11.333Z,24.28
2018-07-05T21:31:26.050Z,24.12
2018-07-05T21:34:40.600Z,24.16
2018-07-05T21:37:55.340Z,24.40
2018-07-05T21:41:09.975Z,24.08
2018-07-05T21:44:24.695Z,24.16
2018-07-05T21:47:39.312Z,23.99
2018-07-05T21:50:54.367Z,23.99
2018-07-05T21:54:09.176Z,23.97
2018-07-05T21:57:23.834Z,24.00
2018-07-05T22:00:38.442Z,23.98
2018-07-05T22:03:53.211Z,23.81
2018-07-05T22:07:08.102Z,23.62
2018-07-05T22:10:22.577Z,23.57
2018-07-05T22:13:37.042Z,23.26
2018-07-05T22:16:57.285Z,23.54
2018-07-05T22:20:17.292Z,23.36
2018-07-05T22:23:37.446Z,23.07
2018-07-05T22:26:52.122Z,22.76
2018-07-05T22:30:12.316Z,22.91
2018-07-05T22:33:26.990Z,22.92
2018-07-05T22:36:41.739Z,22.86
2018-07-05T22:39:56.829Z,22.69
2018-07-05T22:43:11.571Z,22.63
2018-07-05T22:46:26.255Z,22.39
2018-07-05T22:49:40.961Z,22.06
2018-07-05T22:52:55.540Z,21.97
2018-07-05T22:56:10.206Z,21.94
2018-07-05T22:59:24.696Z,21.73
2018-07-05T23:02:39.299Z,21.94
2018-07-05T23:05:54.012Z,21.86
2018-07-05T23:09:08.778Z,21.97
2018-07-05T23:12:23.736Z,21.74
2018-07-05T23:15:38.446Z,21.83
2018-07-05T23:18:53.197Z,21.87
2018-07-05T23:22:07.846Z,21.77
2018-07-05T23:25:22.423Z,21.98
2018-07-05T23:28:37.001Z,21.91
2018-07-05T23:31:51.687Z,21.75
2018-07-05T23:35:06.389Z,22.06
2018-07-05T23:38:20.845Z,21.63
2018-07-05T23:41:35.582Z,21.83
2018-07-05T23:44:50.410Z,21.39
2018-07-05T23:48:04.958Z,21.41
2018-07-05T23:51:19.639Z,21.16
2018-07-05T23:54:34.172Z,21.32
2018-07-05T23:57:48.684Z,21.11
